Time;durP1;ratioP1;P1;durP2;ratioP2;P2;SDS_P1;SDS_P2;PMS_P1;PMS_P2;Temp;Humidity;BMP_temperature;BMP_pressure;BME280_temperature;BME280_humidity;BME280_pressure;Samples;Min_cycle;Max_cycle;Signal;HPM_P1;HPM_P2
2023/04/23 00:01:58;;;;;;;11.10;6.63;;;12.30;99.90;;;;;;4969858;28;20039;-71
2023/04/23 00:04:27;;;;;;;13.13;6.93;;;12.30;99.90;;;;;;4972020;28;20069;-72
2023/04/23 00:06:53;;;;;;;12.02;7.18;;;12.30;99.90;;;;;;4971083;28;20141;-72
2023/04/23 00:09:21;;;;;;;12.70;7.63;;;12.30;99.90;;;;;;4989051;28;20058;-72
2023/04/23 00:11:47;;;;;;;16.98;7.28;;;12.30;99.90;;;;;;4989908;28;20038;-73
2023/04/23 00:14:13;;;;;;;14.55;7.30;;;12.30;99.90;;;;;;4996224;28;20486;-72
2023/04/23 00:16:39;;;;;;;14.35;7.15;;;12.30;99.90;;;;;;4989972;28;20834;-73
2023/04/23 00:19:05;;;;;;;14.73;7.30;;;12.40;99.90;;;;;;4990206;28;20813;-72
2023/04/23 00:21:31;;;;;;;11.02;6.63;;;12.50;99.90;;;;;;4990946;28;20033;-73
2023/04/23 00:23:57;;;;;;;12.20;7.43;;;12.50;99.90;;;;;;4989096;28;20078;-72
2023/04/23 00:26:22;;;;;;;12.35;6.90;;;12.40;99.90;;;;;;4990981;28;20043;-72
2023/04/23 00:28:48;;;;;;;12.93;7.13;;;12.40;99.90;;;;;;4990781;28;20076;-72
2023/04/23 00:31:13;;;;;;;15.18;6.60;;;12.30;99.90;;;;;;4989650;28;20041;-71
2023/04/23 00:33:39;;;;;;;13.93;6.25;;;12.30;99.90;;;;;;4990972;28;20451;-72
2023/04/23 00:36:05;;;;;;;12.40;6.18;;;12.30;99.90;;;;;;4989826;28;20475;-72
2023/04/23 00:38:31;;;;;;;12.93;5.65;;;12.30;99.90;;;;;;4990952;28;20039;-71
2023/04/23 00:40:57;;;;;;;11.45;4.90;;;12.30;99.90;;;;;;4990081;28;20077;-71
2023/04/23 00:43:23;;;;;;;13.73;4.65;;;12.20;99.90;;;;;;4990033;28;20282;-71
2023/04/23 00:45:49;;;;;;;11.98;4.35;;;12.40;99.90;;;;;;4989968;28;20034;-71
2023/04/23 00:48:15;;;;;;;9.65;4.20;;;12.50;99.90;;;;;;4989383;28;20080;-71
2023/04/23 00:50:41;;;;;;;6.10;3.90;;;12.50;99.90;;;;;;4989630;28;20058;-71
2023/04/23 00:53:07;;;;;;;15.85;4.22;;;12.50;99.90;;;;;;4990001;28;20965;-71
2023/04/23 00:55:33;;;;;;;12.32;4.43;;;12.50;99.90;;;;;;4990546;28;20042;-72
2023/04/23 00:57:59;;;;;;;8.20;4.40;;;12.50;99.90;;;;;;4980324;28;20041;-72
2023/04/23 01:00:25;;;;;;;8.23;4.05;;;12.60;99.90;;;;;;4989082;28;20109;-71
2023/04/23 01:02:52;;;;;;;10.18;4.35;;;12.70;99.90;;;;;;4989991;28;20027;-71
2023/04/23 01:05:19;;;;;;;6.18;3.80;;;12.70;99.90;;;;;;4977422;28;20066;-72
2023/04/23 01:07:45;;;;;;;8.98;3.97;;;12.80;99.90;;;;;;4989999;28;20054;-72
2023/04/23 01:10:12;;;;;;;9.73;3.55;;;12.80;99.90;;;;;;4988706;28;20053;-73
2023/04/23 01:12:37;;;;;;;8.23;4.15;;;12.80;99.90;;;;;;4990446;28;20037;-73
2023/04/23 01:15:04;;;;;;;12.23;4.00;;;12.80;99.90;;;;;;4987298;28;20046;-72
2023/04/23 01:17:31;;;;;;;8.32;4.20;;;12.80;99.90;;;;;;4989869;28;20022;-73
2023/04/23 01:19:56;;;;;;;7.22;3.92;;;12.80;99.90;;;;;;4989135;28;20034;-73
2023/04/23 01:22:22;;;;;;;12.02;4.38;;;12.80;99.90;;;;;;4989733;28;20373;-72
2023/04/23 01:24:49;;;;;;;7.78;4.05;;;12.70;99.90;;;;;;4988318;28;20026;-72
2023/04/23 01:27:15;;;;;;;10.10;4.40;;;12.70;99.90;;;;;;4989363;28;20117;-73
2023/04/23 01:29:41;;;;;;;9.40;4.40;;;12.70;99.90;;;;;;4989144;28;20204;-72
2023/04/23 01:32:07;;;;;;;12.20;4.35;;;12.60;99.90;;;;;;4989251;28;20414;-73
2023/04/23 01:34:34;;;;;;;10.75;4.60;;;12.60;99.90;;;;;;4989747;28;20575;-73
2023/04/23 01:37:02;;;;;;;8.63;4.50;;;12.60;99.90;;;;;;4988143;28;20045;-73
2023/04/23 01:39:27;;;;;;;8.05;4.60;;;12.50;99.90;;;;;;4989857;28;20164;-73
2023/04/23 01:41:53;;;;;;;11.77;4.75;;;12.40;99.90;;;;;;4989325;28;20117;-73
2023/04/23 01:44:19;;;;;;;14.63;5.55;;;12.30;99.90;;;;;;4979211;28;20527;-73
2023/04/23 01:46:45;;;;;;;12.77;5.10;;;12.30;99.90;;;;;;4989684;28;20046;-73
2023/04/23 01:49:12;;;;;;;10.40;5.03;;;12.20;99.90;;;;;;4986753;28;20080;-72
2023/04/23 01:51:37;;;;;;;10.65;5.28;;;12.20;99.90;;;;;;4982420;28;20038;-73
2023/04/23 01:54:03;;;;;;;11.32;5.22;;;12.10;99.90;;;;;;4985224;28;20035;-72
2023/04/23 01:56:29;;;;;;;15.55;5.35;;;12.10;99.90;;;;;;4974411;28;20494;-72
2023/04/23 01:58:55;;;;;;;9.07;5.10;;;12.10;99.90;;;;;;4981257;28;20035;-71
2023/04/23 02:01:21;;;;;;;11.68;5.28;;;12.10;99.90;;;;;;4986548;28;20041;-72
2023/04/23 02:03:49;;;;;;;14.65;5.07;;;12.00;99.90;;;;;;4987987;28;20026;-72
2023/04/23 02:06:16;;;;;;;10.52;5.30;;;12.00;99.90;;;;;;4984689;28;20061;-71
2023/04/23 02:08:41;;;;;;;9.18;5.28;;;11.90;99.90;;;;;;4987101;28;20046;-72
2023/04/23 02:11:07;;;;;;;8.98;4.88;;;11.90;99.90;;;;;;4998043;28;20481;-72
2023/04/23 02:13:33;;;;;;;11.77;5.25;;;11.90;99.90;;;;;;4989004;28;20033;-71
2023/04/23 02:16:00;;;;;;;14.38;5.15;;;11.90;99.90;;;;;;4988110;28;20120;-72
2023/04/23 02:18:25;;;;;;;10.45;4.90;;;11.80;99.90;;;;;;4989042;28;20065;-72
2023/04/23 02:20:51;;;;;;;9.93;5.22;;;11.80;99.90;;;;;;4985934;28;20034;-71
2023/04/23 02:23:16;;;;;;;11.68;5.05;;;11.70;99.90;;;;;;4987362;28;20038;-71
2023/04/23 02:25:42;;;;;;;10.15;4.88;;;11.70;99.90;;;;;;4988147;28;20037;-71
2023/04/23 02:28:10;;;;;;;11.18;5.53;;;11.60;99.90;;;;;;4988303;28;20039;-71
2023/04/23 02:30:36;;;;;;;13.57;5.70;;;11.60;99.90;;;;;;4988253;28;20034;-72
2023/04/23 02:33:02;;;;;;;9.32;5.43;;;11.50;99.90;;;;;;4988172;28;20044;-71
2023/04/23 02:35:28;;;;;;;12.65;5.72;;;11.50;99.90;;;;;;4985568;28;20087;-71
2023/04/23 02:37:54;;;;;;;14.05;6.40;;;11.40;99.90;;;;;;4988323;28;20104;-71
2023/04/23 02:40:20;;;;;;;13.90;5.65;;;11.40;99.90;;;;;;4987039;28;20093;-71
2023/04/23 02:42:46;;;;;;;11.82;5.28;;;11.30;99.90;;;;;;4982413;28;20455;-71
2023/04/23 02:45:12;;;;;;;13.27;6.38;;;11.30;99.90;;;;;;4971240;28;20037;-73
2023/04/23 02:47:38;;;;;;;13.10;6.57;;;11.30;99.90;;;;;;4988398;28;20030;-72
2023/04/23 02:50:07;;;;;;;12.30;5.65;;;11.20;99.90;;;;;;4985903;28;20454;-70
2023/04/23 02:52:33;;;;;;;11.67;5.70;;;11.20;99.90;;;;;;4975781;28;20030;-71
2023/04/23 02:55:00;;;;;;;13.65;5.70;;;11.10;99.90;;;;;;4986803;28;20041;-71
2023/04/23 02:57:27;;;;;;;10.40;5.60;;;11.20;99.90;;;;;;4970564;28;20105;-71
2023/04/23 02:59:53;;;;;;;18.10;6.10;;;11.10;99.90;;;;;;4985557;28;20047;-72
2023/04/23 03:02:19;;;;;;;12.80;6.00;;;11.10;99.90;;;;;;4969383;28;20086;-71
2023/04/23 03:04:45;;;;;;;15.48;5.93;;;11.10;99.90;;;;;;4987656;28;20089;-71
2023/04/23 03:07:12;;;;;;;13.63;7.40;;;11.00;99.90;;;;;;4986223;28;20053;-72
2023/04/23 03:09:38;;;;;;;14.23;5.63;;;11.00;99.90;;;;;;4985574;28;20100;-72
2023/04/23 03:12:03;;;;;;;15.13;6.20;;;11.00;99.90;;;;;;4969894;28;20031;-73
2023/04/23 03:14:29;;;;;;;10.05;5.53;;;11.00;99.90;;;;;;4989117;28;20035;-72
2023/04/23 03:16:55;;;;;;;14.75;6.22;;;11.10;99.90;;;;;;4987653;28;20393;-71
2023/04/23 03:19:20;;;;;;;14.48;5.63;;;11.10;99.90;;;;;;4987766;28;20042;-72
2023/04/23 03:21:46;;;;;;;12.27;6.18;;;11.10;99.90;;;;;;4987767;28;20030;-72
2023/04/23 03:24:12;;;;;;;14.27;6.47;;;11.00;99.90;;;;;;4987903;28;20034;-72
2023/04/23 03:26:38;;;;;;;13.52;6.05;;;11.00;99.90;;;;;;4988071;28;20037;-72
2023/04/23 03:29:05;;;;;;;13.13;6.20;;;11.00;99.90;;;;;;4987111;28;20043;-72
2023/04/23 03:31:30;;;;;;;13.43;6.05;;;11.00;99.90;;;;;;4988323;28;20534;-72
2023/04/23 03:33:56;;;;;;;13.93;5.65;;;11.00;99.90;;;;;;4988014;28;20027;-72
2023/04/23 03:36:21;;;;;;;17.13;6.15;;;11.00;99.90;;;;;;4966959;28;20034;-72
2023/04/23 03:38:47;;;;;;;14.13;5.97;;;11.00;99.90;;;;;;4986836;28;20069;-72
2023/04/23 03:41:13;;;;;;;12.80;6.25;;;11.00;99.90;;;;;;4991206;28;20084;-72
2023/04/23 03:43:38;;;;;;;9.60;5.25;;;10.90;99.90;;;;;;4990892;28;20027;-72
2023/04/23 03:46:04;;;;;;;11.05;5.88;;;10.90;99.90;;;;;;4989838;28;20096;-73
2023/04/23 03:48:30;;;;;;;13.07;6.00;;;10.80;99.90;;;;;;4991391;28;20026;-72
2023/04/23 03:50:57;;;;;;;12.43;5.60;;;10.80;99.90;;;;;;4989076;28;20108;-72
2023/04/23 03:53:22;;;;;;;12.35;6.00;;;10.80;99.90;;;;;;4990562;28;20452;-72
2023/04/23 03:55:48;;;;;;;12.77;5.88;;;10.80;99.90;;;;;;4989753;28;20111;-72
2023/04/23 03:58:13;;;;;;;11.32;5.85;;;10.80;99.90;;;;;;4990056;28;20035;-72
2023/04/23 04:00:39;;;;;;;15.10;5.85;;;10.80;99.90;;;;;;4990251;28;20034;-72
2023/04/23 04:03:07;;;;;;;13.85;6.40;;;10.80;99.90;;;;;;4988815;28;20043;-72
2023/04/23 04:05:33;;;;;;;14.23;5.78;;;10.70;99.90;;;;;;4990609;28;20038;-72
2023/04/23 04:07:58;;;;;;;12.63;6.65;;;10.70;99.90;;;;;;4990819;28;20387;-72
2023/04/23 04:10:24;;;;;;;13.63;6.13;;;10.70;99.90;;;;;;4989890;28;20092;-72
2023/04/23 04:12:50;;;;;;;12.40;6.63;;;10.70;99.90;;;;;;4990910;28;20264;-72
2023/04/23 04:15:18;;;;;;;13.88;6.40;;;10.70;99.90;;;;;;4990076;28;20532;-72
2023/04/23 04:17:44;;;;;;;12.68;6.32;;;10.70;99.90;;;;;;4989445;28;20827;-72
2023/04/23 04:20:10;;;;;;;12.23;6.18;;;10.70;99.90;;;;;;4989003;28;20085;-72
2023/04/23 04:22:36;;;;;;;13.00;5.82;;;10.70;99.90;;;;;;4988178;28;20514;-72
2023/04/23 04:25:02;;;;;;;14.60;5.57;;;10.70;99.90;;;;;;4989743;28;20102;-72
2023/04/23 04:27:27;;;;;;;11.95;5.82;;;10.70;99.90;;;;;;4990184;28;20054;-72
2023/04/23 04:29:53;;;;;;;11.27;5.32;;;10.70;99.90;;;;;;4990360;28;20100;-72
2023/04/23 04:32:18;;;;;;;14.75;5.60;;;10.70;99.90;;;;;;4988881;28;20689;-72
2023/04/23 04:34:44;;;;;;;11.35;5.93;;;10.70;99.90;;;;;;4990095;28;20030;-72
2023/04/23 04:37:10;;;;;;;11.50;5.60;;;10.80;99.90;;;;;;4988665;28;20573;-72
2023/04/23 04:39:36;;;;;;;9.00;5.35;;;10.70;99.90;;;;;;4990640;28;20031;-72
2023/04/23 04:42:03;;;;;;;12.90;5.40;;;10.70;99.90;;;;;;4989330;28;20072;-72
2023/04/23 04:44:29;;;;;;;9.38;4.95;;;10.70;99.90;;;;;;4986678;28;20018;-72
2023/04/23 04:46:55;;;;;;;10.57;5.88;;;10.70;99.90;;;;;;4990056;28;20046;-71
2023/04/23 04:49:21;;;;;;;11.45;5.18;;;10.70;99.90;;;;;;4984100;28;20054;-71
2023/04/23 04:51:46;;;;;;;12.18;5.40;;;10.60;99.90;;;;;;4987513;28;20746;-71
2023/04/23 04:54:12;;;;;;;11.27;5.75;;;10.70;99.90;;;;;;4988547;28;20038;-71
2023/04/23 04:56:39;;;;;;;13.93;5.50;;;10.70;99.90;;;;;;4990771;28;20102;-71
2023/04/23 04:59:04;;;;;;;10.88;5.30;;;10.70;99.90;;;;;;4988825;28;20121;-72
2023/04/23 05:01:32;;;;;;;9.70;4.63;;;10.70;99.90;;;;;;4988445;28;20117;-71
2023/04/23 05:03:58;;;;;;;10.25;5.20;;;10.70;99.90;;;;;;4989802;28;20042;-72
2023/04/23 05:06:24;;;;;;;9.07;4.70;;;10.70;99.90;;;;;;4988596;28;20087;-72
2023/04/23 05:08:50;;;;;;;10.80;4.82;;;10.80;99.90;;;;;;4990297;28;20132;-72
2023/04/23 05:11:19;;;;;;;10.95;5.53;;;10.80;99.90;;;;;;4989488;28;20136;-72
2023/04/23 05:13:46;;;;;;;11.25;5.10;;;10.80;99.90;;;;;;4990458;28;20031;-71
2023/04/23 05:16:12;;;;;;;11.55;4.72;;;10.90;99.90;;;;;;4988439;28;20046;-71
2023/04/23 05:18:38;;;;;;;9.15;4.97;;;10.90;99.90;;;;;;4990343;28;20048;-71
2023/04/23 05:21:05;;;;;;;9.02;4.75;;;11.00;99.90;;;;;;4969614;28;20034;-71
2023/04/23 05:23:31;;;;;;;9.48;4.75;;;11.00;99.90;;;;;;4985995;28;20038;-71
2023/04/23 05:25:57;;;;;;;8.90;4.22;;;11.10;99.90;;;;;;4989039;28;20490;-71
2023/04/23 05:28:24;;;;;;;7.85;4.22;;;11.10;99.90;;;;;;4989282;28;20083;-71
2023/04/23 05:30:50;;;;;;;9.80;4.57;;;11.10;99.90;;;;;;4989782;28;20038;-71
2023/04/23 05:33:16;;;;;;;8.73;4.22;;;11.10;99.90;;;;;;5015248;28;20026;-71
2023/04/23 05:35:42;;;;;;;10.85;5.22;;;11.10;99.90;;;;;;4986513;28;20049;-72
2023/04/23 05:38:08;;;;;;;9.20;4.72;;;11.20;99.90;;;;;;4987916;28;20044;-71
2023/04/23 05:40:34;;;;;;;8.50;4.45;;;11.20;99.90;;;;;;4989615;28;20445;-72
2023/04/23 05:42:59;;;;;;;10.50;4.97;;;11.20;99.90;;;;;;4988127;28;20042;-71
2023/04/23 05:45:25;;;;;;;7.45;4.68;;;11.20;99.90;;;;;;4987630;28;20022;-72
2023/04/23 05:47:51;;;;;;;8.80;5.10;;;11.10;99.90;;;;;;4987812;28;20081;-71
2023/04/23 05:50:17;;;;;;;12.80;5.18;;;11.20;99.90;;;;;;4990857;28;20062;-72
2023/04/23 05:52:43;;;;;;;7.93;4.47;;;11.20;99.90;;;;;;4987845;28;20133;-71
2023/04/23 05:55:09;;;;;;;10.48;4.55;;;11.20;99.90;;;;;;4987105;28;20113;-71
2023/04/23 05:57:38;;;;;;;9.98;4.50;;;11.20;99.90;;;;;;4988903;28;20479;-71
2023/04/23 06:00:05;;;;;;;10.65;4.57;;;11.30;99.90;;;;;;4987198;28;20399;-72
2023/04/23 06:02:32;;;;;;;8.70;3.90;;;11.30;99.90;;;;;;4987824;28;20061;-72
2023/04/23 06:04:58;;;;;;;7.80;4.35;;;11.30;99.90;;;;;;4989753;28;20022;-73
2023/04/23 06:07:24;;;;;;;7.20;4.63;;;11.30;99.90;;;;;;4991610;28;20092;-71
2023/04/23 06:09:49;;;;;;;9.48;4.72;;;11.30;99.90;;;;;;4988520;28;20113;-72
2023/04/23 06:12:15;;;;;;;7.90;4.68;;;11.30;99.90;;;;;;4987675;28;20525;-71
2023/04/23 06:14:41;;;;;;;7.65;4.30;;;11.40;99.90;;;;;;4987566;28;20462;-72
2023/04/23 06:17:06;;;;;;;6.97;4.13;;;11.40;99.90;;;;;;4988667;28;20042;-72
2023/04/23 06:19:32;;;;;;;6.40;3.67;;;11.50;99.90;;;;;;5002393;28;20077;-73
2023/04/23 06:21:58;;;;;;;6.78;4.28;;;11.60;99.90;;;;;;4988088;28;20080;-71
2023/04/23 06:24:23;;;;;;;5.82;3.45;;;11.70;99.90;;;;;;4987947;28;20097;-72
2023/04/23 06:26:49;;;;;;;6.25;3.67;;;11.70;99.90;;;;;;4988077;28;20034;-73
2023/04/23 06:29:15;;;;;;;6.43;3.20;;;11.70;99.90;;;;;;4987841;28;20421;-72
2023/04/23 06:31:40;;;;;;;8.00;3.60;;;11.80;99.90;;;;;;4988235;28;20387;-72
2023/04/23 06:34:06;;;;;;;7.57;3.95;;;11.70;99.90;;;;;;4987684;28;20027;-71
2023/04/23 06:36:32;;;;;;;9.93;5.30;;;11.80;99.90;;;;;;4987337;28;20081;-71
2023/04/23 06:38:58;;;;;;;7.57;3.72;;;11.90;99.90;;;;;;4988284;28;20043;-73
2023/04/23 06:41:24;;;;;;;4.93;3.25;;;11.80;99.90;;;;;;4992491;28;20470;-71
2023/04/23 06:43:49;;;;;;;16.27;6.00;;;11.80;99.90;;;;;;4980980;28;20030;-71
2023/04/23 06:46:15;;;;;;;12.77;7.00;;;11.70;99.90;;;;;;4986483;28;20034;-71
2023/04/23 06:48:41;;;;;;;12.57;8.23;;;11.70;99.90;;;;;;4985770;28;20061;-71
2023/04/23 06:51:06;;;;;;;23.05;9.60;;;11.70;99.90;;;;;;4987699;28;20039;-68
2023/04/23 06:53:33;;;;;;;19.25;8.88;;;11.80;99.90;;;;;;4984137;28;20030;-72
2023/04/23 06:55:58;;;;;;;27.98;16.58;;;11.80;99.90;;;;;;4986329;28;20121;-71
2023/04/23 06:58:29;;;;;;;39.90;22.73;;;11.80;99.90;;;;;;4987713;28;20038;-71
2023/04/23 07:00:56;;;;;;;37.67;20.00;;;11.80;99.90;;;;;;4985960;28;20039;-72
2023/04/23 07:03:22;;;;;;;32.83;18.38;;;11.80;99.90;;;;;;4985992;28;20073;-71
2023/04/23 07:05:48;;;;;;;19.60;10.63;;;11.70;99.90;;;;;;4987778;28;20065;-71
2023/04/23 07:08:13;;;;;;;16.77;9.15;;;11.70;99.90;;;;;;4985532;28;20481;-71
2023/04/23 07:10:39;;;;;;;9.98;5.43;;;11.70;99.90;;;;;;4987183;28;20118;-71
2023/04/23 07:13:04;;;;;;;8.55;4.30;;;11.90;99.90;;;;;;4987296;28;20030;-72
2023/04/23 07:15:30;;;;;;;8.40;3.15;;;12.00;99.90;;;;;;4981449;28;20037;-71
2023/04/23 07:17:56;;;;;;;7.05;3.67;;;12.20;99.90;;;;;;4972032;28;20031;-72
2023/04/23 07:20:21;;;;;;;5.82;3.38;;;12.30;99.90;;;;;;4990706;28;20029;-71
2023/04/23 07:22:47;;;;;;;7.45;3.05;;;12.30;99.90;;;;;;4982169;28;20114;-72
2023/04/23 07:25:13;;;;;;;7.32;3.42;;;12.40;99.90;;;;;;4986241;28;20672;-71
2023/04/23 07:27:38;;;;;;;5.32;3.00;;;12.50;99.90;;;;;;4992034;28;20343;-71
2023/04/23 07:30:05;;;;;;;3.78;2.13;;;12.60;99.90;;;;;;4991358;28;20062;-73
2023/04/23 07:32:30;;;;;;;5.18;2.28;;;12.50;99.90;;;;;;5005891;28;20844;-72
2023/04/23 07:34:56;;;;;;;4.88;2.58;;;12.60;99.90;;;;;;4991450;28;20034;-72
2023/04/23 07:37:22;;;;;;;4.68;2.67;;;12.70;99.90;;;;;;4975327;28;20080;-73
2023/04/23 07:39:48;;;;;;;4.75;2.45;;;12.60;99.90;;;;;;4986172;28;20038;-71
2023/04/23 07:42:16;;;;;;;4.85;2.70;;;12.70;99.90;;;;;;4983281;28;20034;-70
2023/04/23 07:44:42;;;;;;;3.42;1.90;;;12.80;99.90;;;;;;4983147;28;20722;-71
2023/04/23 07:47:07;;;;;;;4.18;2.38;;;13.00;99.90;;;;;;4991569;28;20125;-71
2023/04/23 07:49:33;;;;;;;6.20;2.45;;;13.10;99.90;;;;;;4989683;28;20104;-73
2023/04/23 07:51:58;;;;;;;3.53;1.77;;;13.30;99.90;;;;;;4987164;28;20754;-73
2023/04/23 07:54:24;;;;;;;4.32;1.98;;;13.20;99.90;;;;;;4989792;28;20035;-71
2023/04/23 07:56:50;;;;;;;3.85;1.90;;;13.10;99.90;;;;;;4991683;28;20030;-71
2023/04/23 07:59:16;;;;;;;2.78;1.75;;;13.10;99.90;;;;;;4990765;28;20453;-72
2023/04/23 08:01:42;;;;;;;4.82;1.80;;;13.20;99.90;;;;;;4991786;28;20110;-71
2023/04/23 08:04:07;;;;;;;2.17;1.30;;;13.40;99.90;;;;;;4989638;28;20022;-72
2023/04/23 08:06:34;;;;;;;3.72;1.48;;;13.30;99.90;;;;;;4989377;28;20066;-72
2023/04/23 08:09:00;;;;;;;2.05;1.40;;;13.20;99.90;;;;;;4988789;28;20058;-71
2023/04/23 08:11:28;;;;;;;4.80;1.52;;;13.10;99.90;;;;;;4987802;28;20034;-71
2023/04/23 08:13:54;;;;;;;3.05;1.80;;;13.00;99.90;;;;;;4987568;28;20041;-71
2023/04/23 08:16:19;;;;;;;3.72;1.52;;;13.20;99.90;;;;;;4985939;28;20043;-71
2023/04/23 08:18:45;;;;;;;1.95;1.27;;;13.50;99.90;;;;;;4972273;28;20034;-71
2023/04/23 08:21:11;;;;;;;1.95;1.10;;;13.70;99.90;;;;;;4972687;28;20422;-71
2023/04/23 08:23:37;;;;;;;1.52;1.00;;;13.90;99.90;;;;;;4988353;28;20022;-72
2023/04/23 08:26:02;;;;;;;1.73;1.30;;;13.70;99.90;;;;;;4984459;28;20034;-71
2023/04/23 08:28:29;;;;;;;1.27;1.00;;;13.80;99.90;;;;;;4989286;28;20031;-71
2023/04/23 08:30:55;;;;;;;2.88;1.17;;;13.70;99.90;;;;;;4983976;28;20082;-72
2023/04/23 08:33:20;;;;;;;1.77;1.00;;;13.60;99.90;;;;;;4987245;28;20038;-72
2023/04/23 08:35:46;;;;;;;2.90;1.10;;;13.50;99.90;;;;;;4990070;28;20034;-72
2023/04/23 08:38:12;;;;;;;2.75;1.40;;;13.50;99.90;;;;;;4987819;28;20062;-72
2023/04/23 08:40:41;;;;;;;2.60;1.20;;;13.60;99.90;;;;;;4990087;28;20464;-72
2023/04/23 08:43:15;;;;;;;2.25;1.05;;;13.80;99.90;;;;;;4990308;28;20034;-72
2023/04/23 08:45:48;;;;;;;4.03;1.15;;;13.70;99.90;;;;;;4989941;28;20034;-72
2023/04/23 08:48:14;;;;;;;2.03;1.05;;;13.80;99.90;;;;;;4988799;28;20525;-71
2023/04/23 08:50:44;;;;;;;2.33;1.00;;;13.70;99.90;;;;;;4989049;28;20117;-72
2023/04/23 08:53:14;;;;;;;2.67;1.10;;;13.60;99.90;;;;;;4984463;28;20042;-71
2023/04/23 08:55:40;;;;;;;1.58;1.00;;;13.70;99.90;;;;;;4986344;28;20100;-71
2023/04/23 08:58:06;;;;;;;1.70;0.90;;;13.70;99.90;;;;;;4990913;28;20026;-72
2023/04/23 09:00:33;;;;;;;2.10;1.13;;;13.80;99.90;;;;;;4989965;28;20542;-71
2023/04/23 09:02:59;;;;;;;2.88;1.05;;;13.80;99.90;;;;;;4989604;28;20034;-72
2023/04/23 09:05:26;;;;;;;1.77;1.10;;;13.70;99.90;;;;;;4988852;28;20420;-72
2023/04/23 09:07:53;;;;;;;2.13;1.08;;;13.60;99.90;;;;;;4988543;28;20046;-71
2023/04/23 09:10:19;;;;;;;2.28;1.35;;;13.70;99.90;;;;;;4985663;28;20390;-71
2023/04/23 09:12:45;;;;;;;1.83;1.20;;;13.70;99.90;;;;;;4990500;28;20033;-72
2023/04/23 09:15:12;;;;;;;7.53;1.42;;;13.60;99.90;;;;;;4988734;28;20057;-72
2023/04/23 09:17:40;;;;;;;2.50;1.30;;;13.60;99.90;;;;;;4987137;28;20097;-72
2023/04/23 09:20:08;;;;;;;3.42;1.30;;;13.70;99.90;;;;;;4983501;28;20137;-72
2023/04/23 09:22:40;;;;;;;2.00;1.10;;;13.70;99.90;;;;;;4988583;28;20481;-72
2023/04/23 09:25:07;;;;;;;2.42;1.25;;;13.80;99.90;;;;;;4992543;28;20514;-72
2023/04/23 09:27:35;;;;;;;2.33;1.30;;;13.90;99.90;;;;;;4988073;28;20038;-72
2023/04/23 09:30:03;;;;;;;2.25;1.40;;;14.40;99.90;;;;;;4992682;28;20038;-71
2023/04/23 09:32:44;;;;;;;2.65;1.33;;;14.60;99.90;;;;;;4987337;28;20853;-71
2023/04/23 09:35:14;;;;;;;;;;;14.90;99.90;;;;;;4989324;28;20093;-71
2023/04/23 09:37:47;;;;;;;1.90;1.25;;;15.30;99.90;;;;;;4986130;28;19905;-72
2023/04/23 09:40:17;;;;;;;2.55;1.30;;;15.40;99.90;;;;;;4988176;28;20037;-73
2023/04/23 09:42:48;;;;;;;2.38;1.33;;;15.50;99.90;;;;;;4984985;28;20054;-71
2023/04/23 09:45:14;;;;;;;2.55;1.45;;;15.50;99.90;;;;;;4988519;28;20393;-72
2023/04/23 09:47:47;;;;;;;3.60;1.10;;;15.50;99.90;;;;;;4987502;28;20073;-71
2023/04/23 09:50:13;;;;;;;2.13;1.20;;;15.40;99.90;;;;;;4985007;28;20030;-71
2023/04/23 09:52:40;;;;;;;2.60;1.30;;;15.20;99.90;;;;;;4983332;28;20599;-71
2023/04/23 09:55:06;;;;;;;3.38;1.30;;;15.00;99.90;;;;;;4988134;28;20042;-71
2023/04/23 09:57:43;;;;;;;4.82;1.35;;;15.10;99.90;;;;;;4988202;28;20042;-71
2023/04/23 10:00:17;;;;;;;1.65;1.10;;;15.40;99.90;;;;;;4989648;28;20489;-71
2023/04/23 10:02:48;;;;;;;3.78;1.10;;;15.40;99.90;;;;;;4988758;28;20045;-71
2023/04/23 10:05:17;;;;;;;2.25;1.13;;;15.60;99.90;;;;;;4989718;28;20026;-71
2023/04/23 10:07:45;;;;;;;2.22;0.98;;;15.90;99.90;;;;;;4987521;28;20050;-71
2023/04/23 10:10:12;;;;;;;2.03;1.15;;;16.00;99.90;;;;;;4989408;28;20038;-72
2023/04/23 10:12:38;;;;;;;4.03;1.10;;;15.90;99.90;;;;;;4988643;28;20034;-70
2023/04/23 10:15:06;;;;;;;1.92;1.15;;;16.10;99.90;;;;;;4989544;28;20077;-71
2023/04/23 10:17:33;;;;;;;3.75;1.10;;;16.30;99.90;;;;;;4988477;28;20077;-71
2023/04/23 10:20:00;;;;;;;2.45;1.05;;;16.80;99.90;;;;;;4989245;28;20037;-72
2023/04/23 10:22:29;;;;;;;2.45;0.85;;;17.30;99.90;;;;;;4988474;28;20023;-71
2023/04/23 10:24:57;;;;;;;2.97;1.02;;;17.20;99.90;;;;;;4988027;28;20042;-71
2023/04/23 10:27:27;;;;;;;1.90;1.05;;;16.50;99.90;;;;;;4987067;28;20093;-70
2023/04/23 10:29:53;;;;;;;2.17;1.07;;;16.50;99.90;;;;;;4985550;28;20038;-71
2023/04/23 10:32:20;;;;;;;1.20;0.88;;;16.30;99.90;;;;;;4981100;28;20055;-71
2023/04/23 10:34:46;;;;;;;3.63;0.90;;;16.50;99.90;;;;;;4985046;28;20114;-70
2023/04/23 10:37:14;;;;;;;3.22;0.80;;;17.00;99.90;;;;;;4987855;28;20030;-70
2023/04/23 10:39:43;;;;;;;2.70;1.00;;;17.50;99.90;;;;;;4987483;28;20038;-72
2023/04/23 10:42:12;;;;;;;3.53;0.85;;;17.90;99.90;;;;;;4988934;28;20113;-71
2023/04/23 10:44:40;;;;;;;3.55;0.70;;;18.40;99.90;;;;;;4986310;28;20030;-71
2023/04/23 10:47:13;;;;;;;1.98;0.73;;;18.10;99.90;;;;;;4988657;28;20149;-70
2023/04/23 10:49:38;;;;;;;1.50;0.70;;;18.10;99.90;;;;;;4989646;28;20136;-71
2023/04/23 10:52:09;;;;;;;2.53;0.95;;;17.90;99.90;;;;;;4991942;28;20561;-71
2023/04/23 10:54:35;;;;;;;2.00;1.05;;;18.00;99.90;;;;;;4991534;28;20462;-72
2023/04/23 10:57:03;;;;;;;1.17;0.80;;;17.80;99.90;;;;;;4991019;28;20049;-70
2023/04/23 10:59:31;;;;;;;1.65;0.70;;;17.40;99.90;;;;;;4990680;28;20038;-70
2023/04/23 11:01:58;;;;;;;1.45;0.70;;;17.60;99.90;;;;;;4992069;28;20026;-71
2023/04/23 11:04:28;;;;;;;1.90;0.80;;;17.20;99.90;;;;;;4992104;28;20042;-70
2023/04/23 11:07:07;;;;;;;2.63;0.70;;;17.00;99.90;;;;;;4980566;28;20070;-71
2023/04/23 11:09:41;;;;;;;3.00;1.00;;;17.20;99.90;;;;;;4988657;28;20312;-70
2023/04/23 11:12:27;;;;;;;1.73;0.70;;;17.30;99.90;;;;;;4990349;28;20041;-71
2023/04/23 11:14:54;;;;;;;2.67;1.00;;;17.40;99.90;;;;;;4987154;28;20491;-71
2023/04/23 11:17:30;;;;;;;1.30;0.80;;;17.80;99.90;;;;;;4991493;28;20092;-70
2023/04/23 11:20:17;;;;;;;2.88;1.00;;;17.90;99.90;;;;;;4989372;28;20041;-71
2023/04/23 11:22:45;;;;;;;2.40;0.80;;;18.30;99.90;;;;;;4971873;28;20022;-71
2023/04/23 11:25:13;;;;;;;1.42;0.95;;;18.00;99.90;;;;;;4987607;28;20113;-71
2023/04/23 11:27:40;;;;;;;1.23;0.80;;;18.00;99.90;;;;;;4991381;28;20019;-71
2023/04/23 11:30:11;;;;;;;1.70;0.77;;;18.00;99.90;;;;;;4990984;28;20438;-72
2023/04/23 11:32:37;;;;;;;1.02;0.70;;;18.00;99.90;;;;;;4991508;28;20172;-72
2023/04/23 11:35:04;;;;;;;2.05;0.90;;;18.00;99.90;;;;;;4989457;28;20050;-72
2023/04/23 11:37:29;;;;;;;2.00;1.08;;;18.00;99.90;;;;;;4990598;28;20042;-71
2023/04/23 11:39:55;;;;;;;1.85;0.90;;;17.90;99.90;;;;;;4990129;28;20038;-72
2023/04/23 11:42:22;;;;;;;1.10;0.90;;;18.10;99.90;;;;;;4991312;28;20038;-71
2023/04/23 11:44:47;;;;;;;2.22;1.00;;;18.50;99.90;;;;;;4991046;28;20653;-72
2023/04/23 11:47:17;;;;;;;2.13;0.73;;;18.50;99.90;;;;;;4990195;28;20034;-71
2023/04/23 11:49:43;;;;;;;3.88;1.10;;;18.50;99.90;;;;;;4988371;28;20108;-71
2023/04/23 11:52:10;;;;;;;1.67;0.88;;;18.80;99.90;;;;;;4989923;28;20750;-71
2023/04/23 11:54:35;;;;;;;4.35;0.90;;;18.90;99.90;;;;;;4990796;28;20080;-70
2023/04/23 11:57:03;;;;;;;1.95;1.00;;;19.10;99.90;;;;;;4991163;28;20113;-71
2023/04/23 11:59:29;;;;;;;4.82;1.02;;;19.00;99.90;;;;;;4990343;28;20034;-71
2023/04/23 12:01:57;;;;;;;1.33;0.98;;;18.50;99.90;;;;;;4989786;28;20034;-70
2023/04/23 12:04:25;;;;;;;2.20;1.00;;;17.90;99.90;;;;;;4989360;28;20542;-71
2023/04/23 12:06:52;;;;;;;2.03;1.02;;;17.80;99.90;;;;;;4987975;28;20042;-70
2023/04/23 12:09:20;;;;;;;1.98;0.90;;;18.10;99.90;;;;;;4991556;28;20062;-70
2023/04/23 12:11:46;;;;;;;3.20;0.90;;;18.20;99.90;;;;;;4990693;28;20038;-70
2023/04/23 12:14:14;;;;;;;2.90;1.20;;;18.20;99.90;;;;;;4991064;28;20030;-70
2023/04/23 12:16:41;;;;;;;2.67;1.38;;;18.30;99.90;;;;;;4989262;28;20034;-71
2023/04/23 12:19:13;;;;;;;3.70;1.10;;;18.60;99.90;;;;;;4988580;28;20483;-72
2023/04/23 12:21:48;;;;;;;2.03;0.98;;;18.50;99.90;;;;;;4989730;28;20495;-71
2023/04/23 12:24:15;;;;;;;2.47;1.13;;;18.70;99.90;;;;;;4988423;28;20813;-71
2023/04/23 12:26:41;;;;;;;4.13;1.25;;;18.80;99.90;;;;;;4989193;28;20027;-70
2023/04/23 12:29:07;;;;;;;2.33;1.20;;;18.70;99.90;;;;;;4990780;28;20907;-71
2023/04/23 12:31:32;;;;;;;1.38;1.00;;;18.80;99.90;;;;;;4990465;28;20109;-70
2023/04/23 12:34:06;;;;;;;1.95;1.15;;;19.00;99.90;;;;;;4991238;28;20690;-70
2023/04/23 12:36:33;;;;;;;2.40;1.30;;;19.20;99.90;;;;;;4988577;28;20105;-71
2023/04/23 12:39:18;;;;;;;2.22;1.08;;;19.30;99.90;;;;;;4990530;28;20544;-71
2023/04/23 12:41:44;;;;;;;2.88;1.33;;;19.50;99.90;;;;;;4978730;28;20375;-71